sensor_id;sensor_type;location;lat;lon;timestamp;pressure;altitude;pressure_sealevel;temperature;humidity
44926;BME280;30662;51.210;7.656;2023-04-10T00:00:17;150410.38;;;6.42;91.70
44926;BME280;30662;51.210;7.656;2023-04-10T00:02:43;150423.00;;;6.47;91.43
44926;BME280;30662;51.210;7.656;2023-04-10T00:05:10;150426.78;;;6.49;90.31
44926;BME280;30662;51.210;7.656;2023-04-10T00:07:36;150423.00;;;6.47;90.86
44926;BME280;30662;51.210;7.656;2023-04-10T00:10:02;150419.22;;;6.46;90.30
44926;BME280;30662;51.210;7.656;2023-04-10T00:12:28;150423.00;;;6.47;89.83
44926;BME280;30662;51.210;7.656;2023-04-10T00:14:54;150435.63;;;6.52;89.31
44926;BME280;30662;51.210;7.656;2023-04-10T00:17:20;150450.75;;;6.58;90.20
44926;BME280;30662;51.210;7.656;2023-04-10T00:19:46;150450.75;;;6.58;88.64
44926;BME280;30662;51.210;7.656;2023-04-10T00:22:12;150428.03;;;6.49;89.18
44926;BME280;30662;51.210;7.656;2023-04-10T00:24:40;150449.50;;;6.58;88.60
44926;BME280;30662;51.210;7.656;2023-04-10T00:27:05;150428.03;;;6.49;88.31
44926;BME280;30662;51.210;7.656;2023-04-10T00:29:31;150436.91;;;6.53;88.51
44926;BME280;30662;51.210;7.656;2023-04-10T00:31:57;150449.50;;;6.58;87.74
44926;BME280;30662;51.210;7.656;2023-04-10T00:34:23;150438.16;;;6.53;87.85
44926;BME280;30662;51.210;7.656;2023-04-10T00:36:50;150479.78;;;6.70;86.66
44926;BME280;30662;51.210;7.656;2023-04-10T00:39:28;150488.66;;;6.74;86.21
44926;BME280;30662;51.210;7.656;2023-04-10T00:41:55;150440.69;;;6.54;86.49
44926;BME280;30662;51.210;7.656;2023-04-10T00:44:22;150438.16;;;6.53;87.22
44926;BME280;30662;51.210;7.656;2023-04-10T00:46:48;150428.03;;;6.49;87.14
44926;BME280;30662;51.210;7.656;2023-04-10T00:49:14;150458.34;;;6.61;86.84
44926;BME280;30662;51.210;7.656;2023-04-10T00:51:43;150453.31;;;6.59;86.40
44926;BME280;30662;51.210;7.656;2023-04-10T00:54:09;150453.31;;;6.59;85.90
44926;BME280;30662;51.210;7.656;2023-04-10T00:56:36;150445.72;;;6.56;86.33
44926;BME280;30662;51.210;7.656;2023-04-10T00:59:02;150425.53;;;6.48;86.04
44926;BME280;30662;51.210;7.656;2023-04-10T01:01:31;150449.50;;;6.58;85.90
44926;BME280;30662;51.210;7.656;2023-04-10T01:03:58;150486.09;;;6.73;84.94
44926;BME280;30662;51.210;7.656;2023-04-10T01:06:45;150460.88;;;6.62;85.78
44926;BME280;30662;51.210;7.656;2023-04-10T01:11:53;150426.78;;;6.49;86.85
44926;BME280;30662;51.210;7.656;2023-04-10T01:14:30;150397.72;;;6.37;87.47
44926;BME280;30662;51.210;7.656;2023-04-10T01:17:09;150387.66;;;6.33;88.53
44926;BME280;30662;51.210;7.656;2023-04-10T01:23:08;150402.81;;;6.39;88.72
44926;BME280;30662;51.210;7.656;2023-04-10T01:25:56;150423.00;;;6.47;86.88
44926;BME280;30662;51.210;7.656;2023-04-10T01:28:37;150382.63;;;6.31;88.00
44926;BME280;30662;51.210;7.656;2023-04-10T01:31:07;150392.69;;;6.35;87.55
44926;BME280;30662;51.210;7.656;2023-04-10T01:33:42;150396.47;;;6.36;87.41
44926;BME280;30662;51.210;7.656;2023-04-10T01:36:12;150396.47;;;6.36;87.67
44926;BME280;30662;51.210;7.656;2023-04-10T01:38:43;150381.38;;;6.30;87.65
44926;BME280;30662;51.210;7.656;2023-04-10T01:41:10;150400.31;;;6.38;86.59
44926;BME280;30662;51.210;7.656;2023-04-10T01:43:39;150399.03;;;6.38;87.55
44926;BME280;30662;51.210;7.656;2023-04-10T01:46:06;150395.22;;;6.36;87.04
44926;BME280;30662;51.210;7.656;2023-04-10T01:48:32;150421.75;;;6.47;85.32
44926;BME280;30662;51.210;7.656;2023-04-10T01:51:03;150414.16;;;6.44;85.45
44926;BME280;30662;51.210;7.656;2023-04-10T01:53:32;150416.72;;;6.45;85.10
44926;BME280;30662;51.210;7.656;2023-04-10T01:55:59;150423.00;;;6.47;85.84
44926;BME280;30662;51.210;7.656;2023-04-10T01:58:25;150388.94;;;6.33;85.93
44926;BME280;30662;51.210;7.656;2023-04-10T02:00:51;150396.47;;;6.36;86.62
44926;BME280;30662;51.210;7.656;2023-04-10T02:03:17;150383.91;;;6.31;86.19
44926;BME280;30662;51.210;7.656;2023-04-10T02:08:52;150424.25;;;6.48;85.10
44926;BME280;30662;51.210;7.656;2023-04-10T02:13:55;150382.63;;;6.31;85.78
44926;BME280;30662;51.210;7.656;2023-04-10T02:16:25;150373.78;;;6.27;86.51
44926;BME280;30662;51.210;7.656;2023-04-10T02:18:52;150383.91;;;6.31;85.97
44926;BME280;30662;51.210;7.656;2023-04-10T02:21:19;150402.81;;;6.39;85.64
44926;BME280;30662;51.210;7.656;2023-04-10T02:23:45;150393.97;;;6.35;85.85
44926;BME280;30662;51.210;7.656;2023-04-10T02:26:11;150412.88;;;6.43;85.87
44926;BME280;30662;51.210;7.656;2023-04-10T02:28:38;150421.75;;;6.47;85.19
44926;BME280;30662;51.210;7.656;2023-04-10T02:31:05;150410.38;;;6.42;84.59
44926;BME280;30662;51.210;7.656;2023-04-10T02:33:31;150411.63;;;6.43;84.43
44926;BME280;30662;51.210;7.656;2023-04-10T02:35:59;150399.03;;;6.38;84.47
44926;BME280;30662;51.210;7.656;2023-04-10T02:38:25;150414.16;;;6.44;85.19
44926;BME280;30662;51.210;7.656;2023-04-10T02:40:52;150406.59;;;6.41;84.53
44926;BME280;30662;51.210;7.656;2023-04-10T02:43:18;150397.72;;;6.37;85.15
44926;BME280;30662;51.210;7.656;2023-04-10T02:45:44;150392.69;;;6.35;84.93
44926;BME280;30662;51.210;7.656;2023-04-10T02:48:10;150347.31;;;6.17;85.44
44926;BME280;30662;51.210;7.656;2023-04-10T02:50:36;150351.06;;;6.18;86.06
44926;BME280;30662;51.210;7.656;2023-04-10T02:53:02;150346.03;;;6.16;86.01
44926;BME280;30662;51.210;7.656;2023-04-10T02:55:27;150342.22;;;6.15;86.17
44926;BME280;30662;51.210;7.656;2023-04-10T02:57:53;150333.41;;;6.11;86.16
44926;BME280;30662;51.210;7.656;2023-04-10T03:00:21;150354.84;;;6.20;86.04
44926;BME280;30662;51.210;7.656;2023-04-10T03:02:47;150342.22;;;6.15;86.38
44926;BME280;30662;51.210;7.656;2023-04-10T03:05:13;150317.00;;;6.04;86.61
44926;BME280;30662;51.210;7.656;2023-04-10T03:07:40;150354.84;;;6.20;86.29
44926;BME280;30662;51.210;7.656;2023-04-10T03:10:06;150342.22;;;6.15;86.16
44926;BME280;30662;51.210;7.656;2023-04-10T03:12:32;150325.81;;;6.08;87.10
44926;BME280;30662;51.210;7.656;2023-04-10T03:14:58;150330.91;;;6.10;86.53
44926;BME280;30662;51.210;7.656;2023-04-10T03:17:24;150346.03;;;6.16;86.22
44926;BME280;30662;51.210;7.656;2023-04-10T03:19:50;150358.63;;;6.21;85.91
44926;BME280;30662;51.210;7.656;2023-04-10T03:22:16;150334.66;;;6.12;87.24
44926;BME280;30662;51.210;7.656;2023-04-10T03:24:42;150343.47;;;6.15;85.88
44926;BME280;30662;51.210;7.656;2023-04-10T03:27:08;150370.00;;;6.26;85.48
44926;BME280;30662;51.210;7.656;2023-04-10T03:29:34;150338.44;;;6.13;86.38
44926;BME280;30662;51.210;7.656;2023-04-10T03:32:00;150343.47;;;6.15;86.38
44926;BME280;30662;51.210;7.656;2023-04-10T03:34:26;150309.47;;;6.01;87.66
44926;BME280;30662;51.210;7.656;2023-04-10T03:36:52;150330.91;;;6.10;87.03
44926;BME280;30662;51.210;7.656;2023-04-10T03:39:18;150313.22;;;6.03;87.58
44926;BME280;30662;51.210;7.656;2023-04-10T03:41:44;150352.34;;;6.19;86.98
44926;BME280;30662;51.210;7.656;2023-04-10T03:44:10;150347.31;;;6.17;86.77
44926;BME280;30662;51.210;7.656;2023-04-10T03:46:36;150348.56;;;6.17;86.39
44926;BME280;30662;51.210;7.656;2023-04-10T03:49:02;150322.03;;;6.06;87.22
44926;BME280;30662;51.210;7.656;2023-04-10T03:51:27;150301.84;;;5.98;87.67
44926;BME280;30662;51.210;7.656;2023-04-10T03:53:54;150330.91;;;6.10;87.25
44926;BME280;30662;51.210;7.656;2023-04-10T03:56:20;150313.22;;;6.03;87.42
44926;BME280;30662;51.210;7.656;2023-04-10T03:58:47;150317.00;;;6.04;87.51
44926;BME280;30662;51.210;7.656;2023-04-10T04:01:13;150324.56;;;6.07;87.17
44926;BME280;30662;51.210;7.656;2023-04-10T04:03:39;150299.34;;;5.97;87.88
44926;BME280;30662;51.210;7.656;2023-04-10T04:06:05;150320.78;;;6.06;87.34
44926;BME280;30662;51.210;7.656;2023-04-10T04:08:31;150300.59;;;5.98;87.95
44926;BME280;30662;51.210;7.656;2023-04-10T04:10:57;150295.56;;;5.96;88.21
44926;BME280;30662;51.210;7.656;2023-04-10T04:13:23;150313.22;;;6.03;88.60
44926;BME280;30662;51.210;7.656;2023-04-10T04:15:49;150310.72;;;6.02;89.08
44926;BME280;30662;51.210;7.656;2023-04-10T04:18:15;150310.72;;;6.02;88.30
44926;BME280;30662;51.210;7.656;2023-04-10T04:20:41;150275.34;;;5.88;88.41
44926;BME280;30662;51.210;7.656;2023-04-10T04:23:07;150289.22;;;5.93;88.54
44926;BME280;30662;51.210;7.656;2023-04-10T04:25:33;150265.22;;;5.84;90.30
44926;BME280;30662;51.210;7.656;2023-04-10T04:27:59;150290.47;;;5.94;89.72
44926;BME280;30662;51.210;7.656;2023-04-10T04:30:26;150284.19;;;5.91;90.04
44926;BME280;30662;51.210;7.656;2023-04-10T04:32:51;150275.34;;;5.88;90.71
44926;BME280;30662;51.210;7.656;2023-04-10T04:35:17;150270.25;;;5.86;89.89
44926;BME280;30662;51.210;7.656;2023-04-10T04:37:43;150287.97;;;5.93;89.07
44926;BME280;30662;51.210;7.656;2023-04-10T04:40:10;150287.97;;;5.93;89.15
44926;BME280;30662;51.210;7.656;2023-04-10T04:42:36;150275.34;;;5.88;90.04
44926;BME280;30662;51.210;7.656;2023-04-10T04:45:02;150295.56;;;5.96;89.12
44926;BME280;30662;51.210;7.656;2023-04-10T04:47:29;150290.47;;;5.94;90.04
44926;BME280;30662;51.210;7.656;2023-04-10T04:49:55;150272.81;;;5.87;89.71
44926;BME280;30662;51.210;7.656;2023-04-10T04:52:21;150323.28;;;6.07;88.05
44926;BME280;30662;51.210;7.656;2023-04-10T04:54:48;150303.13;;;5.99;88.78
44926;BME280;30662;51.210;7.656;2023-04-10T04:57:14;150298.09;;;5.97;90.74
44926;BME280;30662;51.210;7.656;2023-04-10T04:59:40;150311.97;;;6.02;88.71
44926;BME280;30662;51.210;7.656;2023-04-10T05:02:06;150310.72;;;6.02;88.28
44926;BME280;30662;51.210;7.656;2023-04-10T05:04:32;150299.34;;;5.97;87.94
44926;BME280;30662;51.210;7.656;2023-04-10T05:06:58;150323.28;;;6.07;87.64
44926;BME280;30662;51.210;7.656;2023-04-10T05:09:24;150337.19;;;6.13;87.47
44926;BME280;30662;51.210;7.656;2023-04-10T05:11:50;150347.31;;;6.17;87.35
44926;BME280;30662;51.210;7.656;2023-04-10T05:14:16;150357.38;;;6.21;86.98
44926;BME280;30662;51.210;7.656;2023-04-10T05:16:42;150366.22;;;6.24;86.16
44926;BME280;30662;51.210;7.656;2023-04-10T05:19:08;150386.41;;;6.32;85.97
44926;BME280;30662;51.210;7.656;2023-04-10T05:21:34;150340.97;;;6.14;86.59
44926;BME280;30662;51.210;7.656;2023-04-10T05:24:02;150354.84;;;6.20;87.41
44926;BME280;30662;51.210;7.656;2023-04-10T05:26:28;150383.91;;;6.31;86.30
44926;BME280;30662;51.210;7.656;2023-04-10T05:28:54;150348.56;;;6.17;86.95
44926;BME280;30662;51.210;7.656;2023-04-10T05:31:20;150366.22;;;6.24;86.79
44926;BME280;30662;51.210;7.656;2023-04-10T05:33:47;150375.03;;;6.28;86.36
44926;BME280;30662;51.210;7.656;2023-04-10T05:36:12;150381.38;;;6.30;86.22
44926;BME280;30662;51.210;7.656;2023-04-10T05:38:39;150371.25;;;6.26;87.47
44926;BME280;30662;51.210;7.656;2023-04-10T05:41:05;150347.31;;;6.17;87.09
44926;BME280;30662;51.210;7.656;2023-04-10T05:43:31;150363.72;;;6.23;86.33
44926;BME280;30662;51.210;7.656;2023-04-10T05:45:57;150367.50;;;6.25;86.70
44926;BME280;30662;51.210;7.656;2023-04-10T05:48:23;150405.34;;;6.40;85.45
44926;BME280;30662;51.210;7.656;2023-04-10T05:50:51;150376.28;;;6.28;86.96
44926;BME280;30662;51.210;7.656;2023-04-10T05:53:18;150376.28;;;6.28;86.30
44926;BME280;30662;51.210;7.656;2023-04-10T05:55:44;150376.28;;;6.28;85.82
44926;BME280;30662;51.210;7.656;2023-04-10T05:58:16;150375.03;;;6.28;86.17
44926;BME280;30662;51.210;7.656;2023-04-10T06:00:41;150388.94;;;6.33;85.34
44926;BME280;30662;51.210;7.656;2023-04-10T06:03:07;150385.16;;;6.32;85.39
44926;BME280;30662;51.210;7.656;2023-04-10T06:05:34;150396.47;;;6.36;85.72
44926;BME280;30662;51.210;7.656;2023-04-10T06:08:00;150407.84;;;6.41;84.34
44926;BME280;30662;51.210;7.656;2023-04-10T06:10:29;150386.41;;;6.32;85.29
44926;BME280;30662;51.210;7.656;2023-04-10T06:12:55;150399.03;;;6.38;84.76
44926;BME280;30662;51.210;7.656;2023-04-10T06:15:21;150421.75;;;6.47;83.74
44926;BME280;30662;51.210;7.656;2023-04-10T06:17:47;150434.38;;;6.52;82.54
44926;BME280;30662;51.210;7.656;2023-04-10T06:20:13;150430.56;;;6.50;83.65
44926;BME280;30662;51.210;7.656;2023-04-10T06:22:39;150462.13;;;6.63;83.03
44926;BME280;30662;51.210;7.656;2023-04-10T06:25:05;150486.09;;;6.73;82.80
44926;BME280;30662;51.210;7.656;2023-04-10T06:27:33;150478.53;;;6.70;80.63
44926;BME280;30662;51.210;7.656;2023-04-10T06:30:01;150527.78;;;6.89;79.57
44926;BME280;30662;51.210;7.656;2023-04-10T06:32:27;150518.91;;;6.86;79.48
44926;BME280;30662;51.210;7.656;2023-04-10T06:34:56;150525.25;;;6.88;79.84
44926;BME280;30662;51.210;7.656;2023-04-10T06:37:26;150535.34;;;6.93;79.75
44926;BME280;30662;51.210;7.656;2023-04-10T06:40:12;150582.06;;;7.11;79.71
44926;BME280;30662;51.210;7.656;2023-04-10T06:42:38;150590.88;;;7.15;75.46
44926;BME280;30662;51.210;7.656;2023-04-10T06:45:06;150595.97;;;7.17;74.99
44926;BME280;30662;51.210;7.656;2023-04-10T06:47:32;150613.59;;;7.24;75.19
44926;BME280;30662;51.210;7.656;2023-04-10T06:49:58;150651.53;;;7.39;73.31
44926;BME280;30662;51.210;7.656;2023-04-10T06:52:27;150671.75;;;7.47;71.98
44926;BME280;30662;51.210;7.656;2023-04-10T06:54:53;150673.00;;;7.48;72.04
44926;BME280;30662;51.210;7.656;2023-04-10T06:57:19;150680.56;;;7.51;71.16
44926;BME280;30662;51.210;7.656;2023-04-10T06:59:45;150704.59;;;7.61;70.93
44926;BME280;30662;51.210;7.656;2023-04-10T07:02:11;150731.09;;;7.71;68.63
44926;BME280;30662;51.210;7.656;2023-04-10T07:04:37;150731.09;;;7.71;69.16
44926;BME280;30662;51.210;7.656;2023-04-10T07:07:03;150757.66;;;7.82;68.75
44926;BME280;30662;51.210;7.656;2023-04-10T07:09:30;150756.34;;;7.82;68.98
44926;BME280;30662;51.210;7.656;2023-04-10T07:11:56;150746.25;;;7.78;68.87
44926;BME280;30662;51.210;7.656;2023-04-10T07:14:22;150745.00;;;7.77;69.38
44926;BME280;30662;51.210;7.656;2023-04-10T07:16:48;150772.75;;;7.88;69.28
44926;BME280;30662;51.210;7.656;2023-04-10T07:19:14;150756.34;;;7.82;68.59
44926;BME280;30662;51.210;7.656;2023-04-10T07:21:40;150770.25;;;7.87;69.47
44926;BME280;30662;51.210;7.656;2023-04-10T07:24:06;150762.69;;;7.84;69.05
44926;BME280;30662;51.210;7.656;2023-04-10T07:26:32;150768.97;;;7.87;69.20
44926;BME280;30662;51.210;7.656;2023-04-10T07:28:58;150801.84;;;8.00;69.35
44926;BME280;30662;51.210;7.656;2023-04-10T07:31:24;150817.00;;;8.06;69.25
44926;BME280;30662;51.210;7.656;2023-04-10T07:33:51;150880.19;;;8.32;68.73
44926;BME280;30662;51.210;7.656;2023-04-10T07:36:17;150885.25;;;8.34;67.74
44926;BME280;30662;51.210;7.656;2023-04-10T07:38:43;150923.22;;;8.49;67.86
44926;BME280;30662;51.210;7.656;2023-04-10T07:41:09;150925.75;;;8.50;65.96
44926;BME280;30662;51.210;7.656;2023-04-10T07:43:36;150973.81;;;8.69;65.96
44926;BME280;30662;51.210;7.656;2023-04-10T07:46:02;150967.44;;;8.67;65.13
44926;BME280;30662;51.210;7.656;2023-04-10T07:48:28;150982.63;;;8.73;64.71
44926;BME280;30662;51.210;7.656;2023-04-10T07:50:55;151028.16;;;8.91;63.55
44926;BME280;30662;51.210;7.656;2023-04-10T07:53:21;151042.03;;;8.97;62.68
44926;BME280;30662;51.210;7.656;2023-04-10T07:55:48;151047.13;;;8.99;63.54
44926;BME280;30662;51.210;7.656;2023-04-10T07:58:14;151063.56;;;9.05;61.83
44926;BME280;30662;51.210;7.656;2023-04-10T08:00:41;151085.06;;;9.14;60.99
44926;BME280;30662;51.210;7.656;2023-04-10T08:03:07;151079.97;;;9.12;61.76
44926;BME280;30662;51.210;7.656;2023-04-10T08:05:33;151117.94;;;9.27;62.11
44926;BME280;30662;51.210;7.656;2023-04-10T08:07:59;151153.38;;;9.42;61.26
44926;BME280;30662;51.210;7.656;2023-04-10T08:10:25;151144.47;;;9.38;60.46
44926;BME280;30662;51.210;7.656;2023-04-10T08:12:51;151190.03;;;9.56;61.20
44926;BME280;30662;51.210;7.656;2023-04-10T08:15:17;151197.63;;;9.59;59.71
44926;BME280;30662;51.210;7.656;2023-04-10T08:17:43;151240.59;;;9.77;59.88
44926;BME280;30662;51.210;7.656;2023-04-10T08:20:10;151278.56;;;9.92;59.41
44926;BME280;30662;51.210;7.656;2023-04-10T08:22:37;151311.47;;;10.05;58.25
44926;BME280;30662;51.210;7.656;2023-04-10T08:25:04;151348.16;;;10.20;58.71
44926;BME280;30662;51.210;7.656;2023-04-10T08:27:30;151392.53;;;10.38;57.86
44926;BME280;30662;51.210;7.656;2023-04-10T08:29:56;151360.88;;;10.25;56.92
44926;BME280;30662;51.210;7.656;2023-04-10T08:32:22;151312.72;;;10.06;58.21
44926;BME280;30662;51.210;7.656;2023-04-10T08:34:51;151316.56;;;10.07;58.53
44926;BME280;30662;51.210;7.656;2023-04-10T08:37:17;151316.56;;;10.07;58.60
44926;BME280;30662;51.210;7.656;2023-04-10T08:39:44;151286.19;;;9.95;58.23
44926;BME280;30662;51.210;7.656;2023-04-10T08:42:10;151325.41;;;10.11;57.06
44926;BME280;30662;51.210;7.656;2023-04-10T08:44:36;151357.09;;;10.24;58.49
44926;BME280;30662;51.210;7.656;2023-04-10T08:47:03;151372.28;;;10.30;57.44
44926;BME280;30662;51.210;7.656;2023-04-10T08:49:33;151365.94;;;10.27;55.87
44926;BME280;30662;51.210;7.656;2023-04-10T08:52:06;151390.00;;;10.37;55.15
44926;BME280;30662;51.210;7.656;2023-04-10T08:54:37;151410.25;;;10.45;55.50
44926;BME280;30662;51.210;7.656;2023-04-10T08:57:05;151409.00;;;10.44;55.23
44926;BME280;30662;51.210;7.656;2023-04-10T08:59:35;151433.03;;;10.54;54.37
44926;BME280;30662;51.210;7.656;2023-04-10T09:02:01;151428.00;;;10.52;54.67
44926;BME280;30662;51.210;7.656;2023-04-10T09:04:27;151453.28;;;10.62;55.19
44926;BME280;30662;51.210;7.656;2023-04-10T09:06:54;151520.41;;;10.89;54.10
44926;BME280;30662;51.210;7.656;2023-04-10T09:09:20;151526.72;;;10.92;53.37
44926;BME280;30662;51.210;7.656;2023-04-10T09:14:25;151595.13;;;11.19;51.68
44926;BME280;30662;51.210;7.656;2023-04-10T09:16:52;151631.84;;;11.34;50.85
44926;BME280;30662;51.210;7.656;2023-04-10T09:19:37;151687.56;;;11.56;51.82
44926;BME280;30662;51.210;7.656;2023-04-10T09:22:04;151739.53;;;11.77;50.78
44926;BME280;30662;51.210;7.656;2023-04-10T09:24:34;151770.00;;;11.90;48.23
44926;BME280;30662;51.210;7.656;2023-04-10T09:27:02;151789.00;;;11.97;47.71
44926;BME280;30662;51.210;7.656;2023-04-10T09:29:57;151794.06;;;11.99;47.38
44926;BME280;30662;51.210;7.656;2023-04-10T09:32:42;151763.63;;;11.87;47.08
44926;BME280;30662;51.210;7.656;2023-04-10T09:35:13;151832.06;;;12.14;47.50
44926;BME280;30662;51.210;7.656;2023-04-10T09:37:41;151805.47;;;12.04;47.13
44926;BME280;30662;51.210;7.656;2023-04-10T09:40:24;151859.97;;;12.26;47.95
44926;BME280;30662;51.210;7.656;2023-04-10T09:42:51;151924.59;;;12.52;47.39
44926;BME280;30662;51.210;7.656;2023-04-10T09:45:17;151913.22;;;12.47;47.11
44926;BME280;30662;51.210;7.656;2023-04-10T09:48:05;151965.19;;;12.68;46.21
44926;BME280;30662;51.210;7.656;2023-04-10T09:50:39;152029.84;;;12.94;46.81
44926;BME280;30662;51.210;7.656;2023-04-10T09:53:07;151963.94;;;12.67;44.50
44926;BME280;30662;51.210;7.656;2023-04-10T09:55:34;151965.19;;;12.68;44.50
44926;BME280;30662;51.210;7.656;2023-04-10T09:58:04;151980.38;;;12.74;43.34
44926;BME280;30662;51.210;7.656;2023-04-10T10:00:45;151929.69;;;12.54;44.01
44926;BME280;30662;51.210;7.656;2023-04-10T10:03:16;151988.00;;;12.77;44.02
44926;BME280;30662;51.210;7.656;2023-04-10T10:05:46;152046.31;;;13.01;43.67
44926;BME280;30662;51.210;7.656;2023-04-10T10:08:13;152108.56;;;13.26;43.92
44926;BME280;30662;51.210;7.656;2023-04-10T10:10:47;152119.94;;;13.30;42.13
44926;BME280;30662;51.210;7.656;2023-04-10T10:13:23;152155.44;;;13.44;42.42
44926;BME280;30662;51.210;7.656;2023-04-10T10:16:14;152159.25;;;13.46;42.22
44926;BME280;30662;51.210;7.656;2023-04-10T10:21:32;152157.97;;;13.45;41.88
44926;BME280;30662;51.210;7.656;2023-04-10T10:24:00;152177.00;;;13.53;41.91
44926;BME280;30662;51.210;7.656;2023-04-10T10:26:28;152201.16;;;13.63;42.04
44926;BME280;30662;51.210;7.656;2023-04-10T10:28:55;152179.53;;;13.54;42.07
44926;BME280;30662;51.210;7.656;2023-04-10T10:31:24;152203.69;;;13.64;42.29
44926;BME280;30662;51.210;7.656;2023-04-10T10:33:51;152301.38;;;14.03;40.51
44926;BME280;30662;51.210;7.656;2023-04-10T10:36:18;152376.22;;;14.33;38.88
44926;BME280;30662;51.210;7.656;2023-04-10T10:39:07;152212.53;;;13.67;39.08
44926;BME280;30662;51.210;7.656;2023-04-10T10:41:41;152083.09;;;13.15;39.17
44926;BME280;30662;51.210;7.656;2023-04-10T10:44:19;152094.59;;;13.20;39.49
44926;BME280;30662;51.210;7.656;2023-04-10T10:46:51;152080.56;;;13.14;40.44
44926;BME280;30662;51.210;7.656;2023-04-10T10:50:04;152135.16;;;13.36;40.25
44926;BME280;30662;51.210;7.656;2023-04-10T10:57:51;152042.53;;;12.99;41.25
44926;BME280;30662;51.210;7.656;2023-04-10T11:00:19;152066.63;;;13.09;41.20
44926;BME280;30662;51.210;7.656;2023-04-10T11:08:13;152292.50;;;13.99;41.38
44926;BME280;30662;51.210;7.656;2023-04-10T11:11:07;152594.66;;;15.21;39.28
44926;BME280;30662;51.210;7.656;2023-04-10T11:13:36;152477.84;;;14.74;38.27
44926;BME280;30662;51.210;7.656;2023-04-10T11:16:03;152507.09;;;14.85;38.68
44926;BME280;30662;51.210;7.656;2023-04-10T11:21:31;152559.09;;;15.06;38.01
44926;BME280;30662;51.210;7.656;2023-04-10T11:31:42;152413.09;;;14.48;37.95
44926;BME280;30662;51.210;7.656;2023-04-10T11:34:08;152510.88;;;14.87;37.65
44926;BME280;30662;51.210;7.656;2023-04-10T11:36:39;152521.00;;;14.91;36.81
44926;BME280;30662;51.210;7.656;2023-04-10T11:39:10;152528.66;;;14.94;37.19
44926;BME280;30662;51.210;7.656;2023-04-10T11:41:45;152743.38;;;15.80;36.14
44926;BME280;30662;51.210;7.656;2023-04-10T11:44:13;152650.59;;;15.43;36.17
44926;BME280;30662;51.210;7.656;2023-04-10T11:46:43;152730.66;;;15.75;35.15
44926;BME280;30662;51.210;7.656;2023-04-10T11:49:21;152641.69;;;15.39;35.13
44926;BME280;30662;51.210;7.656;2023-04-10T11:51:48;152668.38;;;15.50;34.37
44926;BME280;30662;51.210;7.656;2023-04-10T11:54:18;152615.03;;;15.29;35.37
44926;BME280;30662;51.210;7.656;2023-04-10T11:56:54;152662.00;;;15.48;35.58
44926;BME280;30662;51.210;7.656;2023-04-10T11:59:21;152541.38;;;14.99;35.37
44926;BME280;30662;51.210;7.656;2023-04-10T12:01:49;152524.84;;;14.93;36.29
44926;BME280;30662;51.210;7.656;2023-04-10T12:04:21;152545.16;;;15.01;35.61
44926;BME280;30662;51.210;7.656;2023-04-10T12:06:52;152569.28;;;15.10;37.40
44926;BME280;30662;51.210;7.656;2023-04-10T12:09:20;152562.94;;;15.08;36.86
44926;BME280;30662;51.210;7.656;2023-04-10T12:11:52;152611.19;;;15.27;38.13
44926;BME280;30662;51.210;7.656;2023-04-10T12:14:22;152698.88;;;15.62;36.11
44926;BME280;30662;51.210;7.656;2023-04-10T12:16:49;152683.59;;;15.56;34.82
44926;BME280;30662;51.210;7.656;2023-04-10T12:19:16;152668.38;;;15.50;35.21
44926;BME280;30662;51.210;7.656;2023-04-10T12:21:44;152628.97;;;15.34;35.55
44926;BME280;30662;51.210;7.656;2023-04-10T12:24:11;152561.69;;;15.07;36.35
44926;BME280;30662;51.210;7.656;2023-04-10T12:26:37;152632.81;;;15.36;36.29
44926;BME280;30662;51.210;7.656;2023-04-10T12:29:03;152721.75;;;15.71;35.79
44926;BME280;30662;51.210;7.656;2023-04-10T12:31:33;152714.13;;;15.68;35.49
44926;BME280;30662;51.210;7.656;2023-04-10T12:34:00;152672.19;;;15.52;36.18
44926;BME280;30662;51.210;7.656;2023-04-10T12:36:28;152640.41;;;15.39;36.41
44926;BME280;30662;51.210;7.656;2023-04-10T12:38:59;152702.69;;;15.64;36.15
44926;BME280;30662;51.210;7.656;2023-04-10T12:41:27;152693.75;;;15.60;34.76
44926;BME280;30662;51.210;7.656;2023-04-10T12:44:12;152681.03;;;15.55;35.33
44926;BME280;30662;51.210;7.656;2023-04-10T12:46:39;152683.59;;;15.56;32.75
44926;BME280;30662;51.210;7.656;2023-04-10T12:49:16;152743.38;;;15.80;33.12
44926;BME280;30662;51.210;7.656;2023-04-10T12:51:49;152795.47;;;16.01;33.20
44926;BME280;30662;51.210;7.656;2023-04-10T12:54:31;152871.72;;;16.32;32.43
44926;BME280;30662;51.210;7.656;2023-04-10T12:56:58;152947.97;;;16.62;32.16
44926;BME280;30662;51.210;7.656;2023-04-10T12:59:25;152775.09;;;15.93;32.53
44926;BME280;30662;51.210;7.656;2023-04-10T13:01:52;152866.66;;;16.30;32.77
44926;BME280;30662;51.210;7.656;2023-04-10T13:04:18;152935.25;;;16.57;31.89
44926;BME280;30662;51.210;7.656;2023-04-10T13:06:45;152861.53;;;16.27;31.76
44926;BME280;30662;51.210;7.656;2023-04-10T13:09:12;152744.66;;;15.81;30.83
44926;BME280;30662;51.210;7.656;2023-04-10T13:11:39;152641.69;;;15.39;31.98
44926;BME280;30662;51.210;7.656;2023-04-10T13:14:05;152566.75;;;15.09;31.83
44926;BME280;30662;51.210;7.656;2023-04-10T13:16:31;152547.69;;;15.02;32.26
44926;BME280;30662;51.210;7.656;2023-04-10T13:18:57;152470.25;;;14.71;33.22
44926;BME280;30662;51.210;7.656;2023-04-10T13:21:23;152404.19;;;14.44;33.81
44926;BME280;30662;51.210;7.656;2023-04-10T13:23:51;152451.22;;;14.63;34.02
44926;BME280;30662;51.210;7.656;2023-04-10T13:26:17;152429.59;;;14.54;34.08
44926;BME280;30662;51.210;7.656;2023-04-10T13:28:43;152455.03;;;14.65;33.23
44926;BME280;30662;51.210;7.656;2023-04-10T13:31:09;152482.94;;;14.76;33.68
44926;BME280;30662;51.210;7.656;2023-04-10T13:33:35;152419.47;;;14.50;34.42
44926;BME280;30662;51.210;7.656;2023-04-10T13:36:01;152402.91;;;14.44;34.77
44926;BME280;30662;51.210;7.656;2023-04-10T13:38:27;152429.59;;;14.54;35.23
44926;BME280;30662;51.210;7.656;2023-04-10T13:40:53;152461.34;;;14.67;35.62